createdAt,value
2019-02-05T00:01:46.979Z,11.07
2019-02-05T00:04:16.448Z,9.67
2019-02-05T00:06:45.855Z,9.53
2019-02-05T00:09:17.915Z,9.87
2019-02-05T00:11:47.333Z,9.27
2019-02-05T00:14:25.941Z,9.23
2019-02-05T00:16:55.407Z,9.20
2019-02-05T00:19:24.948Z,9.13
2019-02-05T00:21:54.355Z,9.20
2019-02-05T00:24:28.346Z,8.53
2019-02-05T00:26:58.153Z,8.47
2019-02-05T00:29:27.629Z,8.67
2019-02-05T00:31:57.058Z,8.27
2019-02-05T00:34:26.497Z,7.87
2019-02-05T00:37:08.706Z,7.40
2019-02-05T00:39:46.104Z,8.20
2019-02-05T00:42:15.543Z,8.60
2019-02-05T00:44:44.951Z,8.43
2019-02-05T00:47:14.401Z,8.37
2019-02-05T00:49:48.621Z,9.07
2019-02-05T00:52:18.568Z,9.37
2019-02-05T00:54:48.493Z,9.67
2019-02-05T00:57:17.904Z,10.63
2019-02-05T00:59:47.407Z,10.60
2019-02-05T01:02:16.905Z,10.97
2019-02-05T01:04:46.314Z,11.00
2019-02-05T01:07:15.779Z,12.03
2019-02-05T01:09:45.326Z,11.20
2019-02-05T01:12:14.688Z,11.97
2019-02-05T01:14:44.110Z,12.10
2019-02-05T01:17:16.179Z,13.23
2019-02-05T01:19:46.159Z,11.73
2019-02-05T01:22:32.354Z,12.27
2019-02-05T01:25:04.574Z,12.13
2019-02-05T01:27:34.050Z,12.73
2019-02-05T01:30:09.881Z,12.97
2019-02-05T01:32:54.238Z,12.77
2019-02-05T01:35:26.947Z,12.60
2019-02-05T01:37:56.459Z,13.33
2019-02-05T01:40:26.915Z,13.13
2019-02-05T01:42:56.381Z,13.40
2019-02-05T01:45:25.765Z,13.13
2019-02-05T01:47:55.201Z,13.37
2019-02-05T01:50:26.380Z,12.27
2019-02-05T01:52:55.874Z,13.53
2019-02-05T01:55:25.894Z,13.10
2019-02-05T01:57:55.332Z,13.03
2019-02-05T02:00:30.637Z,12.73
2019-02-05T02:03:06.429Z,13.13
2019-02-05T02:05:35.962Z,13.70
2019-02-05T02:08:05.448Z,12.90
2019-02-05T02:10:34.886Z,12.90
2019-02-05T02:13:04.303Z,13.40
2019-02-05T02:15:36.320Z,13.47
2019-02-05T02:18:21.849Z,13.57
2019-02-05T02:20:51.320Z,12.90
2019-02-05T02:23:20.722Z,13.90
2019-02-05T02:25:50.123Z,13.27
2019-02-05T02:28:26.879Z,13.03
2019-02-05T02:30:56.286Z,13.83
2019-02-05T02:33:25.712Z,13.73
2019-02-05T02:35:55.177Z,13.43
2019-02-05T02:38:24.606Z,13.63
2019-02-05T02:40:54.060Z,14.23
2019-02-05T02:43:26.269Z,14.00
2019-02-05T02:45:56.088Z,14.77
2019-02-05T02:48:25.549Z,14.23
2019-02-05T02:50:54.991Z,14.53
2019-02-05T02:53:24.423Z,11.93
2019-02-05T02:56:00.033Z,12.43
2019-02-05T02:58:32.334Z,12.63
2019-02-05T03:01:03.365Z,13.23
2019-02-05T03:03:50.139Z,13.13
2019-02-05T03:06:19.629Z,12.43
2019-02-05T03:08:49.048Z,13.30
2019-02-05T03:11:20.384Z,14.00
2019-02-05T03:13:49.872Z,14.00
2019-02-05T03:16:36.926Z,14.40
2019-02-05T03:19:19.084Z,14.13
2019-02-05T03:21:48.567Z,14.40
2019-02-05T03:24:18.002Z,13.90
2019-02-05T03:26:47.436Z,15.23
2019-02-05T03:29:16.911Z,16.37
2019-02-05T03:31:46.381Z,18.70
2019-02-05T03:34:15.800Z,19.27
2019-02-05T03:36:45.245Z,21.23
2019-02-05T03:39:14.687Z,23.03
2019-02-05T03:41:44.108Z,24.57
2019-02-05T03:44:13.535Z,27.03
2019-02-05T03:46:45.630Z,27.83
2019-02-05T03:49:15.076Z,29.23
2019-02-05T03:52:03.007Z,28.93
2019-02-05T03:54:43.227Z,30.30
2019-02-05T03:57:30.631Z,30.50
2019-02-05T03:59:54.671Z,31.07
2019-02-05T04:02:27.271Z,30.47
2019-02-05T04:05:00.225Z,33.23
2019-02-05T04:07:32.817Z,33.43
2019-02-05T04:10:11.212Z,34.00
2019-02-05T04:12:43.793Z,32.87
2019-02-05T04:15:19.201Z,34.10
2019-02-05T04:17:51.797Z,32.33
2019-02-05T04:20:24.429Z,33.20
2019-02-05T04:22:57.054Z,34.07
2019-02-05T04:25:41.241Z,36.87
2019-02-05T04:28:13.854Z,33.20
2019-02-05T04:30:48.844Z,36.03
2019-02-05T04:33:22.260Z,33.20
2019-02-05T04:35:54.849Z,31.77
2019-02-05T04:38:27.496Z,30.47
2019-02-05T04:41:00.474Z,27.90
2019-02-05T04:43:33.064Z,25.07
2019-02-05T04:46:21.261Z,23.97
2019-02-05T04:48:56.644Z,21.73
2019-02-05T04:51:29.266Z,21.23
2019-02-05T04:54:02.329Z,21.50
2019-02-05T04:56:36.531Z,20.77
2019-02-05T04:59:09.122Z,20.73
2019-02-05T05:01:41.690Z,22.70
2019-02-05T05:04:14.265Z,21.63
2019-02-05T05:06:49.518Z,21.90
2019-02-05T05:09:23.006Z,21.43
2019-02-05T05:11:55.187Z,23.03
2019-02-05T05:14:24.654Z,22.90
2019-02-05T05:16:54.121Z,22.97
2019-02-05T05:22:21.788Z,24.20
2019-02-05T05:24:56.081Z,24.57
2019-02-05T05:27:26.068Z,24.10
2019-02-05T05:29:55.492Z,25.47
2019-02-05T05:32:24.910Z,24.87
2019-02-05T05:35:04.238Z,25.43
2019-02-05T05:37:44.627Z,26.30
2019-02-05T05:40:14.065Z,26.63
2019-02-05T05:43:13.235Z,27.20
2019-02-05T05:45:47.211Z,25.63
2019-02-05T05:48:16.820Z,25.30
2019-02-05T05:50:46.240Z,25.13
2019-02-05T05:53:15.772Z,25.90
2019-02-05T05:55:45.181Z,26.20
2019-02-05T05:58:22.413Z,25.87
2019-02-05T06:00:47.024Z,27.07
2019-02-05T06:03:16.729Z,29.00
2019-02-05T06:05:46.329Z,28.17
2019-02-05T06:08:21.795Z,29.13
2019-02-05T06:10:51.278Z,28.70
2019-02-05T06:13:20.702Z,28.63
2019-02-05T06:15:50.102Z,28.87
2019-02-05T06:18:19.620Z,24.77
2019-02-05T06:20:49.204Z,26.80
2019-02-05T06:23:18.616Z,26.63
2019-02-05T06:25:48.259Z,25.93
2019-02-05T06:28:17.684Z,27.97
2019-02-05T06:30:47.152Z,27.07
2019-02-05T06:33:16.974Z,26.83
2019-02-05T06:35:46.418Z,27.07
2019-02-05T06:38:15.907Z,27.70
2019-02-05T06:40:45.364Z,27.37
2019-02-05T06:43:34.273Z,29.73
2019-02-05T06:46:06.419Z,28.30
2019-02-05T06:48:36.017Z,28.63
2019-02-05T06:51:05.447Z,30.57
2019-02-05T06:53:34.892Z,30.10
2019-02-05T06:56:04.430Z,30.03
2019-02-05T06:58:46.073Z,29.43
2019-02-05T07:01:09.105Z,28.73
2019-02-05T07:03:57.279Z,28.33
2019-02-05T07:06:26.704Z,29.10
2019-02-05T07:08:56.212Z,29.07
2019-02-05T07:11:25.765Z,27.77
2019-02-05T07:13:58.105Z,27.93
2019-02-05T07:16:26.314Z,27.87
2019-02-05T07:18:55.822Z,28.10
2019-02-05T07:21:25.242Z,27.03
2019-02-05T07:24:07.630Z,27.20
2019-02-05T07:26:37.069Z,26.53
2019-02-05T07:29:06.650Z,26.93
2019-02-05T07:31:36.091Z,26.80
2019-02-05T07:34:05.596Z,25.67
2019-02-05T07:36:35.027Z,25.90
2019-02-05T07:39:07.503Z,25.47
2019-02-05T07:41:37.046Z,26.27
2019-02-05T07:44:06.856Z,25.13
2019-02-05T07:46:36.423Z,24.87
2019-02-05T07:49:10.363Z,25.30
2019-02-05T07:51:39.771Z,23.53
2019-02-05T07:54:20.589Z,23.00
2019-02-05T07:56:56.059Z,23.10
2019-02-05T07:59:26.120Z,22.37
2019-02-05T08:01:56.815Z,23.93
2019-02-05T08:04:26.714Z,21.03
2019-02-05T08:06:56.242Z,20.00
2019-02-05T08:09:25.880Z,20.80
2019-02-05T08:11:55.322Z,18.83
2019-02-05T08:14:24.989Z,19.77
2019-02-05T08:16:54.593Z,19.83
2019-02-05T08:19:24.033Z,19.17
2019-02-05T08:21:56.373Z,19.23
2019-02-05T08:24:25.821Z,19.83
2019-02-05T08:26:59.626Z,18.13
2019-02-05T08:29:29.117Z,18.33
2019-02-05T08:31:58.786Z,18.17
2019-02-05T08:34:28.235Z,18.07
2019-02-05T08:36:57.651Z,17.77
2019-02-05T08:39:27.116Z,19.10
2019-02-05T08:41:56.953Z,17.20
2019-02-05T08:44:26.497Z,17.97
2019-02-05T08:46:56.194Z,17.57
2019-02-05T08:49:25.862Z,17.77
2019-02-05T08:51:55.291Z,17.90
2019-02-05T08:54:24.947Z,19.07
2019-02-05T08:56:54.397Z,17.43
2019-02-05T08:59:23.912Z,18.10
2019-02-05T09:02:04.718Z,18.17
2019-02-05T09:04:34.242Z,18.57
2019-02-05T09:07:06.810Z,19.10
2019-02-05T09:09:36.371Z,19.13
2019-02-05T09:12:06.087Z,19.40
2019-02-05T09:14:35.800Z,19.37
2019-02-05T09:17:05.295Z,18.87
2019-02-05T09:19:34.753Z,18.83
2019-02-05T09:22:04.412Z,19.93
2019-02-05T09:24:41.834Z,20.27
2019-02-05T09:27:11.312Z,18.77
2019-02-05T09:29:40.746Z,16.90
2019-02-05T09:32:10.169Z,17.23
2019-02-05T09:34:40.879Z,17.03
2019-02-05T09:37:10.453Z,17.47
2019-02-05T09:39:40.069Z,16.53
2019-02-05T09:42:09.977Z,17.23
2019-02-05T09:44:47.786Z,17.03
2019-02-05T09:47:17.229Z,17.30
2019-02-05T09:49:46.802Z,16.27
2019-02-05T09:52:19.401Z,16.47
2019-02-05T09:55:10.714Z,18.10
2019-02-05T09:57:40.139Z,17.40
2019-02-05T10:00:12.778Z,17.83
2019-02-05T10:02:50.164Z,18.33
2019-02-05T10:05:22.846Z,17.80
2019-02-05T10:07:55.141Z,18.50
2019-02-05T10:10:24.661Z,18.97
2019-02-05T10:12:54.088Z,18.47
2019-02-05T10:15:34.874Z,19.20
2019-02-05T10:18:05.683Z,19.30
2019-02-05T10:20:35.146Z,18.57
2019-02-05T10:23:05.092Z,19.40
2019-02-05T10:25:34.566Z,19.37
2019-02-05T10:28:10.427Z,19.70
2019-02-05T10:30:41.951Z,18.63
2019-02-05T10:33:11.513Z,19.50
2019-02-05T10:35:41.092Z,19.87
2019-02-05T10:38:10.591Z,19.47
2019-02-05T10:40:43.066Z,19.83
2019-02-05T10:43:15.640Z,19.17
2019-02-05T10:45:45.565Z,19.37
2019-02-05T10:48:15.147Z,19.37
2019-02-05T10:50:47.583Z,19.67
2019-02-05T10:53:17.063Z,19.33
2019-02-05T10:55:46.578Z,20.37
2019-02-05T10:58:16.064Z,22.83
2019-02-05T11:00:45.756Z,21.80
2019-02-05T11:03:16.944Z,20.90
2019-02-05T11:05:51.523Z,21.77
2019-02-05T11:08:23.646Z,21.77
2019-02-05T11:10:55.801Z,20.37
2019-02-05T11:13:25.334Z,21.43
2019-02-05T11:15:55.036Z,21.57
2019-02-05T11:18:29.531Z,21.80
2019-02-05T11:20:59.342Z,20.73
2019-02-05T11:23:28.821Z,21.67
2019-02-05T11:25:58.291Z,23.23
2019-02-05T11:28:32.282Z,22.77
2019-02-05T11:31:03.737Z,20.73
2019-02-05T11:33:35.745Z,21.40
2019-02-05T11:36:05.928Z,21.63
2019-02-05T11:38:35.514Z,19.63
2019-02-05T11:41:04.989Z,19.40
2019-02-05T11:43:39.393Z,20.37
2019-02-05T11:46:10.536Z,18.80
2019-02-05T11:48:40.054Z,18.93
2019-02-05T11:51:12.482Z,19.97
2019-02-05T11:53:44.635Z,18.87
2019-02-05T11:56:14.107Z,18.17
2019-02-05T11:58:46.573Z,18.67
2019-02-05T12:01:16.248Z,19.10
2019-02-05T12:03:45.962Z,18.00
2019-02-05T12:06:15.422Z,17.20
2019-02-05T12:08:44.961Z,18.57
2019-02-05T12:11:14.413Z,19.17
2019-02-05T12:13:44.967Z,19.07
2019-02-05T12:16:17.946Z,18.30
2019-02-05T12:18:48.519Z,19.93
2019-02-05T12:21:18.553Z,21.13
2019-02-05T12:23:48.131Z,18.70
2019-02-05T12:26:18.091Z,20.07
2019-02-05T12:28:47.814Z,20.27
2019-02-05T12:31:17.253Z,19.93
2019-02-05T12:33:46.744Z,21.57
2019-02-05T12:36:16.214Z,20.90
2019-02-05T12:38:45.941Z,20.13
2019-02-05T12:41:15.431Z,20.37
2019-02-05T12:43:44.852Z,20.57
2019-02-05T12:46:14.307Z,21.70
2019-02-05T12:48:46.665Z,20.43
2019-02-05T12:51:34.424Z,20.97
2019-02-05T12:54:04.162Z,21.33
2019-02-05T12:56:34.288Z,20.53
2019-02-05T12:59:04.162Z,18.80
2019-02-05T13:01:36.466Z,19.50
2019-02-05T13:04:06.595Z,18.60
2019-02-05T13:06:36.115Z,17.90
2019-02-05T13:09:16.041Z,18.10
2019-02-05T13:11:45.459Z,17.83
2019-02-05T13:14:16.697Z,17.17
2019-02-05T13:16:46.093Z,17.53
2019-02-05T13:19:18.274Z,18.13
2019-02-05T13:21:48.105Z,18.90
2019-02-05T13:24:17.563Z,18.57
2019-02-05T13:26:47.009Z,21.07
2019-02-05T13:29:16.498Z,20.20
2019-02-05T13:31:46.005Z,18.07
2019-02-05T13:34:15.495Z,17.40
2019-02-05T13:36:52.940Z,17.80
2019-02-05T13:39:25.094Z,17.77
2019-02-05T13:41:54.899Z,16.43
2019-02-05T13:44:24.328Z,17.23
2019-02-05T13:46:58.736Z,16.77
2019-02-05T13:49:28.209Z,17.60
2019-02-05T13:51:57.632Z,16.77
2019-02-05T13:54:27.221Z,18.50
2019-02-05T13:56:56.760Z,16.47
2019-02-05T13:59:31.373Z,16.60
2019-02-05T14:02:01.167Z,16.83
2019-02-05T14:04:30.975Z,16.17
2019-02-05T14:07:00.381Z,18.53
2019-02-05T14:09:29.896Z,17.20
2019-02-05T14:11:59.396Z,17.23
2019-02-05T14:14:31.559Z,18.50
2019-02-05T14:17:01.069Z,17.83
2019-02-05T14:19:30.606Z,19.40
2019-02-05T14:22:03.095Z,18.23
2019-02-05T14:24:35.675Z,17.63
2019-02-05T14:27:05.131Z,18.20
2019-02-05T14:29:38.489Z,19.10
2019-02-05T14:32:07.966Z,17.87
2019-02-05T14:34:39.024Z,20.30
2019-02-05T14:37:08.602Z,20.70
2019-02-05T14:39:38.231Z,19.13
2019-02-05T14:42:10.587Z,20.23
2019-02-05T14:44:40.171Z,21.40
2019-02-05T14:47:20.085Z,21.20
2019-02-05T14:49:49.524Z,21.27
2019-02-05T14:52:20.575Z,21.20
2019-02-05T14:54:50.228Z,22.37
2019-02-05T14:57:19.900Z,22.40
2019-02-05T14:59:49.438Z,25.27
2019-02-05T15:02:18.974Z,24.47
2019-02-05T15:04:48.995Z,22.23
2019-02-05T15:07:18.526Z,21.13
2019-02-05T15:10:09.760Z,20.87
2019-02-05T15:12:53.082Z,20.33
2019-02-05T15:15:33.157Z,20.80
2019-02-05T15:18:09.608Z,20.93
2019-02-05T15:20:41.766Z,20.63
2019-02-05T15:23:11.621Z,21.53
2019-02-05T15:25:41.129Z,19.60
2019-02-05T15:28:10.902Z,19.60
2019-02-05T15:30:42.945Z,21.23
2019-02-05T15:33:19.311Z,21.10
2019-02-05T15:35:50.317Z,22.10
2019-02-05T15:38:24.720Z,21.77
2019-02-05T15:40:54.167Z,21.77
2019-02-05T15:43:23.608Z,22.50
2019-02-05T15:45:55.938Z,20.87
2019-02-05T15:48:25.446Z,20.83
2019-02-05T15:50:55.021Z,22.00
2019-02-05T15:53:25.032Z,23.10
2019-02-05T15:55:54.530Z,22.77
2019-02-05T15:58:24.145Z,22.47
2019-02-05T16:01:03.394Z,22.67
2019-02-05T16:03:39.374Z,23.60
2019-02-05T16:06:10.018Z,22.73
2019-02-05T16:08:39.539Z,23.43
2019-02-05T16:11:27.090Z,22.57
2019-02-05T16:13:56.648Z,24.47
2019-02-05T16:16:26.497Z,23.63
2019-02-05T16:18:57.615Z,24.50
2019-02-05T16:21:27.026Z,23.43
2019-02-05T16:23:58.283Z,24.27
2019-02-05T16:26:27.830Z,24.83
2019-02-05T16:28:57.298Z,25.17
2019-02-05T16:31:28.008Z,23.47
2019-02-05T16:33:57.659Z,23.47
2019-02-05T16:39:25.074Z,23.70
2019-02-05T16:41:54.817Z,23.87
2019-02-05T16:44:24.263Z,24.60
2019-02-05T16:46:53.771Z,23.40
2019-02-05T16:49:25.897Z,23.63
2019-02-05T16:51:55.324Z,25.40
2019-02-05T16:54:24.933Z,24.93
2019-02-05T16:56:54.404Z,21.90
2019-02-05T16:59:23.869Z,22.53
2019-02-05T17:02:02.707Z,20.83
2019-02-05T17:04:39.844Z,23.03
2019-02-05T17:07:18.114Z,21.23
2019-02-05T17:09:48.003Z,21.83
2019-02-05T17:12:17.646Z,22.73
2019-02-05T17:14:47.079Z,22.00
2019-02-05T17:17:16.497Z,22.63
2019-02-05T17:19:45.954Z,21.47
2019-02-05T17:22:15.367Z,21.33
2019-02-05T17:24:45.901Z,20.80
2019-02-05T17:27:15.435Z,20.17
2019-02-05T17:29:50.097Z,20.40
2019-02-05T17:32:19.168Z,20.53
2019-02-05T17:34:54.557Z,20.47
2019-02-05T17:37:24.113Z,20.60
2019-02-05T17:39:53.648Z,20.07
2019-02-05T17:42:27.712Z,19.97
2019-02-05T17:44:57.620Z,20.47
2019-02-05T17:47:27.141Z,20.43
2019-02-05T17:49:56.638Z,19.67
2019-02-05T17:52:26.161Z,19.00
2019-02-05T17:54:55.551Z,19.90
2019-02-05T17:57:24.977Z,19.40
2019-02-05T17:59:57.041Z,21.20
2019-02-05T18:02:26.643Z,19.77
2019-02-05T18:04:58.993Z,19.67
2019-02-05T18:07:29.092Z,19.97
2019-02-05T18:09:58.595Z,19.73
2019-02-05T18:12:28.112Z,19.23
2019-02-05T18:15:04.463Z,19.63
2019-02-05T18:17:42.375Z,17.17
2019-02-05T18:20:13.426Z,19.23
2019-02-05T18:22:45.530Z,17.70
2019-02-05T18:25:17.340Z,18.03
2019-02-05T18:27:49.957Z,19.10
2019-02-05T18:30:21.999Z,18.90
2019-02-05T18:33:02.831Z,19.20
2019-02-05T18:35:25.816Z,18.20
2019-02-05T18:37:55.313Z,18.77
2019-02-05T18:40:26.388Z,18.73
2019-02-05T18:42:56.137Z,18.13
2019-02-05T18:45:25.628Z,18.03
2019-02-05T18:47:55.085Z,17.30
2019-02-05T18:50:28.029Z,18.07
2019-02-05T18:52:57.573Z,17.90
2019-02-05T18:55:30.159Z,17.90
2019-02-05T18:58:09.177Z,18.40
2019-02-05T19:00:44.976Z,18.43
2019-02-05T19:03:16.153Z,19.90
2019-02-05T19:06:03.734Z,19.97
2019-02-05T19:08:36.170Z,18.80
2019-02-05T19:11:05.625Z,19.53
2019-02-05T19:13:35.063Z,19.63
2019-02-05T19:16:04.847Z,18.93
2019-02-05T19:18:34.295Z,19.63
2019-02-05T19:21:08.224Z,19.60
2019-02-05T19:23:55.065Z,20.50
2019-02-05T19:26:24.660Z,19.50
2019-02-05T19:29:03.277Z,20.27
2019-02-05T19:31:33.631Z,20.93
2019-02-05T19:34:05.695Z,20.90
2019-02-05T19:36:41.281Z,22.97
2019-02-05T19:39:10.827Z,22.27
2019-02-05T19:41:40.229Z,23.50
2019-02-05T19:44:09.646Z,24.30
2019-02-05T19:46:40.685Z,23.97
2019-02-05T19:49:28.373Z,23.67
2019-02-05T19:51:57.822Z,23.37
2019-02-05T19:54:27.770Z,23.53
2019-02-05T19:56:57.200Z,22.63
2019-02-05T19:59:30.281Z,23.77
2019-02-05T20:02:02.756Z,22.40
2019-02-05T20:04:35.753Z,22.97
2019-02-05T20:07:05.186Z,22.97
2019-02-05T20:09:37.868Z,23.70
2019-02-05T20:12:07.278Z,22.80
2019-02-05T20:14:36.677Z,24.20
2019-02-05T20:17:06.355Z,24.53
2019-02-05T20:19:35.850Z,24.83
2019-02-05T20:22:05.256Z,25.50
2019-02-05T20:24:34.660Z,23.87
2019-02-05T20:27:04.118Z,25.17
2019-02-05T20:29:38.047Z,24.13
2019-02-05T20:32:08.133Z,27.23
2019-02-05T20:34:37.900Z,25.07
2019-02-05T20:37:07.304Z,25.90
2019-02-05T20:39:44.435Z,26.67
2019-02-05T20:42:16.881Z,26.30
2019-02-05T20:44:46.804Z,26.93
2019-02-05T20:47:16.241Z,25.87
2019-02-05T20:49:45.732Z,26.30
2019-02-05T20:52:15.212Z,27.20
2019-02-05T20:54:44.615Z,27.03
2019-02-05T20:57:14.059Z,25.87
2019-02-05T20:59:51.137Z,27.17
2019-02-05T21:02:20.555Z,26.50
2019-02-05T21:04:49.988Z,28.60
2019-02-05T21:07:19.711Z,26.93
2019-02-05T21:09:49.521Z,27.83
2019-02-05T21:12:20.623Z,27.07
2019-02-05T21:14:50.061Z,26.70
2019-02-05T21:17:19.488Z,27.53
2019-02-05T21:19:48.974Z,28.03
2019-02-05T21:22:18.402Z,27.70
2019-02-05T21:24:47.842Z,27.83
2019-02-05T21:27:17.249Z,27.27
2019-02-05T21:29:46.687Z,28.43
2019-02-05T21:32:16.376Z,29.77
2019-02-05T21:34:45.773Z,28.17
2019-02-05T21:37:15.212Z,28.93
2019-02-05T21:39:44.642Z,28.97
2019-02-05T21:42:14.183Z,28.03
2019-02-05T21:44:45.577Z,28.37
2019-02-05T21:47:15.755Z,30.37
2019-02-05T21:49:45.160Z,28.03
2019-02-05T21:52:17.252Z,30.07
2019-02-05T21:54:46.681Z,28.40
2019-02-05T21:57:16.136Z,29.57
2019-02-05T21:59:45.648Z,30.60
2019-02-05T22:02:15.394Z,29.40
2019-02-05T22:04:44.870Z,28.37
2019-02-05T22:07:14.310Z,28.33
2019-02-05T22:09:49.660Z,26.07
2019-02-05T22:12:19.116Z,26.90
2019-02-05T22:14:48.547Z,24.77
2019-02-05T22:17:18.716Z,27.17
2019-02-05T22:19:55.739Z,25.70
2019-02-05T22:22:25.196Z,25.73
2019-02-05T22:25:15.152Z,27.70
2019-02-05T22:27:45.048Z,26.97
2019-02-05T22:30:17.477Z,26.67
2019-02-05T22:32:47.026Z,25.83
2019-02-05T22:35:19.097Z,26.27
2019-02-05T22:37:49.332Z,26.30
2019-02-05T22:40:28.140Z,27.37
2019-02-05T22:43:04.304Z,24.83
2019-02-05T22:45:51.890Z,25.10
2019-02-05T22:48:21.646Z,26.27
2019-02-05T22:51:10.530Z,26.50
2019-02-05T22:53:43.034Z,28.33
2019-02-05T22:56:15.292Z,28.00
2019-02-05T22:58:44.944Z,27.93
2019-02-05T23:01:17.623Z,27.07
2019-02-05T23:03:54.218Z,27.57
2019-02-05T23:06:31.349Z,26.33
2019-02-05T23:09:04.324Z,25.73
2019-02-05T23:11:39.844Z,27.10
2019-02-05T23:14:09.340Z,25.70
2019-02-05T23:16:40.459Z,26.87
2019-02-05T23:19:10.356Z,24.60
2019-02-05T23:21:40.145Z,25.80
2019-02-05T23:24:09.675Z,26.43
2019-02-05T23:26:39.182Z,24.27
2019-02-05T23:29:08.705Z,24.60
2019-02-05T23:31:38.241Z,25.03
2019-02-05T23:34:08.068Z,24.33
2019-02-05T23:36:37.970Z,23.67
2019-02-05T23:39:07.684Z,24.07
2019-02-05T23:41:37.211Z,23.20
2019-02-05T23:44:06.750Z,22.53
2019-02-05T23:46:57.995Z,22.33
2019-02-05T23:49:27.497Z,21.20
2019-02-05T23:51:57.059Z,21.50
2019-02-05T23:54:26.874Z,21.77
2019-02-05T23:56:56.452Z,19.90
2019-02-05T23:59:28.635Z,20.10
